メインページ
METAR-TAF:

METAR-TAF

空港 :

アドルフォ・スアレス・マドリード=バラハス空港

マドリード, スペイン

緯度: 40-27N, 経度: 003-33W, 海抜: 609m

現時点の気象観測

当レポートは35分前の08:00(UTC)に作成
南/南東の風 3kt、から西の間で変化する
気温 16°C
湿度 77%
気圧 1013 hPa
視程10km以上
高度6600ftの雲は散在している
高度8000ftの雲は散在している

METAR: LEMD 210800Z 16003KT 100V260 9999 SCT066 SCT080 16/12 Q1013 NOSIG

時間: 10:35 (08:35 UTC)

予報

当レポートは3時間35分前の05:00(UTC)に作成
予報は21日の 06時(UTC)から 22日の 12時(UTC)まで有効
の風 5kt
視程10km以上
高度4000ftの雲はほとんどない
21日の 10時(UTC)から 21日の 12時(UTC)まで徐々に
南/南西の風 10kt
21日の 20時(UTC)から 21日の 22時(UTC)まで徐々に
北東の風 5kt
21日の 12時(UTC)から 21日の 21時(UTC)まで一時的に
高度4000ftの雲は散在している, 塔状積雲.
確率 30% :
21日の 15時(UTC)から 21日の 21時(UTC)まで一時的に
変向風 15kt、最大25ktの突風を伴う
高度4000ftの雲はほとんどない, 積乱雲.
激しい雷雨, 雨

TAF: LEMD 210500Z 2106/2212 01005KT 9999 FEW040 TX23/2115Z TN11/2205Z BECMG 2110/2112 20010KT BECMG 2120/2122 05005KT TEMPO 2112/2121 SCT040TCU PROB30 TEMPO 2115/2121 VRB15G25KT TSRA FEW040CB

4,000以上の空港の気象観測と天気予報(METAR報とTAF報)

利用可能な観測所は地図上に黄色い丸と赤い丸で示す。

丸の上にカーソルを重ねると観測所名を参照できる。

次にクリックすると気象観測と天気予報を参照できる。

マップの切り替え:黒色「×」印の緑ボタンをクリックして拡大、「-」印の緑ボタンをクリックして縮小、緑色の三角印をクリックして隣りの地図に切り替え


METAR-TAF: